createdAt,value
2023-05-10T00:00:14.273Z,13.48
2023-05-10T00:02:41.992Z,13.88
2023-05-10T00:05:09.555Z,12.75
2023-05-10T00:07:37.178Z,12.88
2023-05-10T00:10:04.572Z,12.85
2023-05-10T00:12:32.133Z,12.18
2023-05-10T00:14:59.549Z,11.30
2023-05-10T00:17:27.072Z,11.73
2023-05-10T00:19:54.475Z,11.20
2023-05-10T00:22:22.067Z,11.13
2023-05-10T00:24:49.380Z,10.80
2023-05-10T00:27:16.876Z,10.90
2023-05-10T00:29:44.983Z,10.80
2023-05-10T00:32:12.784Z,10.60
2023-05-10T00:34:40.277Z,11.30
2023-05-10T00:37:07.962Z,11.55
2023-05-10T00:39:35.459Z,11.07
2023-05-10T00:42:02.984Z,11.45
2023-05-10T00:44:30.517Z,12.05
2023-05-10T00:46:57.987Z,11.30
2023-05-10T00:49:26.563Z,11.18
2023-05-10T00:51:54.021Z,11.48
2023-05-10T00:54:21.778Z,11.52
2023-05-10T00:56:50.488Z,11.18
2023-05-10T00:59:18.902Z,11.05
2023-05-10T01:01:47.183Z,11.23
2023-05-10T01:04:15.148Z,10.88
2023-05-10T01:06:43.594Z,11.00
2023-05-10T01:09:11.409Z,11.30
2023-05-10T01:11:40.571Z,11.20
2023-05-10T01:14:08.195Z,11.85
2023-05-10T01:16:37.995Z,12.48
2023-05-10T01:19:13.479Z,11.73
2023-05-10T01:21:45.542Z,12.27
2023-05-10T01:24:32.015Z,12.55
2023-05-10T01:27:11.480Z,12.50
2023-05-10T01:29:42.074Z,12.27
2023-05-10T01:32:09.467Z,12.10
2023-05-10T01:34:38.490Z,12.73
2023-05-10T01:37:14.377Z,13.20
2023-05-10T01:39:51.783Z,12.43
2023-05-10T01:42:23.617Z,12.77
2023-05-10T01:44:55.958Z,12.53
2023-05-10T01:47:29.396Z,13.50
2023-05-10T01:49:58.044Z,14.20
2023-05-10T01:52:28.678Z,14.00
2023-05-10T01:54:57.854Z,13.13
2023-05-10T01:57:27.615Z,13.53
2023-05-10T01:59:55.765Z,13.60
2023-05-10T02:02:24.128Z,13.40
2023-05-10T02:04:52.544Z,13.63
2023-05-10T02:07:20.611Z,13.63
2023-05-10T02:09:49.210Z,13.53
2023-05-10T02:12:17.410Z,13.80
2023-05-10T02:14:45.169Z,13.17
2023-05-10T02:17:13.159Z,12.87
2023-05-10T02:19:42.541Z,12.83
2023-05-10T02:22:10.781Z,12.70
2023-05-10T02:24:38.743Z,11.97
2023-05-10T02:27:06.551Z,12.37
2023-05-10T02:29:34.552Z,12.20
2023-05-10T02:32:02.506Z,12.03
2023-05-10T02:34:31.680Z,11.87
2023-05-10T02:36:59.781Z,12.40
2023-05-10T02:39:29.656Z,11.73
2023-05-10T02:41:58.749Z,12.23
2023-05-10T02:44:27.938Z,12.07
2023-05-10T02:46:57.088Z,12.17
2023-05-10T02:49:24.748Z,11.80
2023-05-10T02:51:59.613Z,11.53
2023-05-10T02:54:30.883Z,11.87
2023-05-10T02:57:00.636Z,11.80
2023-05-10T02:59:28.665Z,12.37
2023-05-10T03:01:56.003Z,12.10
2023-05-10T03:04:23.787Z,12.13
2023-05-10T03:06:53.231Z,12.97
2023-05-10T03:09:22.239Z,12.60
2023-05-10T03:11:58.852Z,13.07
2023-05-10T03:14:39.037Z,12.23
2023-05-10T03:17:26.959Z,12.63
2023-05-10T03:19:59.772Z,12.50
2023-05-10T03:22:31.353Z,12.30
2023-05-10T03:24:59.786Z,12.60
2023-05-10T03:27:30.863Z,12.97
2023-05-10T03:29:59.014Z,13.27
2023-05-10T03:32:28.192Z,12.90
2023-05-10T03:34:55.897Z,13.27
2023-05-10T03:37:25.615Z,12.80
2023-05-10T03:39:53.053Z,13.10
2023-05-10T03:42:20.572Z,14.40
2023-05-10T03:44:50.222Z,14.20
2023-05-10T03:47:18.493Z,12.83
2023-05-10T03:49:45.815Z,13.90
2023-05-10T03:52:13.779Z,12.63
2023-05-10T03:54:41.226Z,13.47
2023-05-10T03:57:08.672Z,14.20
2023-05-10T03:59:36.214Z,13.80
2023-05-10T04:02:03.911Z,13.70
2023-05-10T04:04:31.382Z,13.53
2023-05-10T04:06:59.574Z,14.97
2023-05-10T04:09:27.006Z,15.17
2023-05-10T04:11:54.532Z,14.57
2023-05-10T04:14:21.881Z,13.70
2023-05-10T04:16:49.354Z,12.55
2023-05-10T04:19:17.001Z,12.48
2023-05-10T04:21:44.441Z,12.90
2023-05-10T04:24:13.087Z,12.80
2023-05-10T04:26:41.071Z,12.93
2023-05-10T04:29:08.404Z,11.70
2023-05-10T04:31:37.351Z,11.43
2023-05-10T04:34:04.741Z,11.10
2023-05-10T04:36:33.602Z,10.73
2023-05-10T04:39:01.089Z,10.63
2023-05-10T04:41:28.513Z,10.45
2023-05-10T04:43:55.969Z,10.20
2023-05-10T04:46:23.461Z,9.38
2023-05-10T04:48:50.949Z,9.40
2023-05-10T04:51:18.371Z,8.88
2023-05-10T04:53:54.095Z,8.13
2023-05-10T04:56:29.536Z,8.60
2023-05-10T04:58:56.899Z,7.95
2023-05-10T05:01:25.476Z,7.72
2023-05-10T05:03:54.079Z,8.27
2023-05-10T05:06:25.898Z,8.30
2023-05-10T05:08:53.385Z,8.07
2023-05-10T05:11:21.988Z,7.93
2023-05-10T05:13:49.328Z,7.32
2023-05-10T05:16:16.710Z,7.53
2023-05-10T05:18:44.239Z,7.85
2023-05-10T05:21:18.176Z,8.27
2023-05-10T05:23:45.820Z,8.63
2023-05-10T05:26:13.267Z,8.95
2023-05-10T05:28:40.836Z,8.98
2023-05-10T05:31:08.982Z,9.25
2023-05-10T05:33:36.905Z,9.32
2023-05-10T05:36:05.049Z,9.50
2023-05-10T05:38:32.533Z,9.02
2023-05-10T05:41:00.100Z,9.32
2023-05-10T05:43:27.824Z,9.15
2023-05-10T05:45:55.394Z,9.35
2023-05-10T05:48:22.884Z,9.35
2023-05-10T05:50:50.447Z,9.32
2023-05-10T05:53:17.918Z,8.60
2023-05-10T05:55:53.993Z,8.60
2023-05-10T05:58:21.952Z,8.80
2023-05-10T06:00:49.601Z,8.57
2023-05-10T06:03:17.065Z,7.97
2023-05-10T06:05:44.484Z,8.68
2023-05-10T06:08:12.094Z,8.63
2023-05-10T06:10:39.671Z,9.20
2023-05-10T06:13:07.192Z,8.43
2023-05-10T06:15:34.823Z,8.00
2023-05-10T06:18:02.359Z,8.32
2023-05-10T06:20:29.960Z,8.10
2023-05-10T06:22:57.283Z,8.05
2023-05-10T06:25:25.030Z,7.32
2023-05-10T06:27:56.681Z,7.55
2023-05-10T06:30:28.310Z,7.40
2023-05-10T06:32:56.496Z,7.97
2023-05-10T06:35:23.975Z,7.85
2023-05-10T06:37:52.052Z,7.13
2023-05-10T06:40:19.780Z,8.02
2023-05-10T06:42:47.428Z,7.80
2023-05-10T06:45:15.884Z,7.80
2023-05-10T06:47:43.877Z,6.80
2023-05-10T06:50:12.456Z,7.13
2023-05-10T06:52:40.325Z,7.18
2023-05-10T06:55:08.136Z,6.30
2023-05-10T06:57:35.674Z,6.75
2023-05-10T07:00:05.272Z,6.60
2023-05-10T07:02:32.889Z,6.25
2023-05-10T07:05:02.693Z,6.82
2023-05-10T07:07:31.129Z,6.43
2023-05-10T07:09:58.988Z,6.72
2023-05-10T07:12:26.624Z,6.45
2023-05-10T07:14:57.574Z,7.05
2023-05-10T07:17:25.482Z,6.70
2023-05-10T07:19:55.771Z,6.88
2023-05-10T07:22:32.839Z,6.65
2023-05-10T07:25:03.732Z,6.45
2023-05-10T07:27:31.678Z,6.40
2023-05-10T07:30:01.981Z,6.70
2023-05-10T07:32:30.041Z,6.57
2023-05-10T07:34:57.954Z,6.80
2023-05-10T07:37:31.014Z,6.00
2023-05-10T07:40:02.185Z,6.43
2023-05-10T07:42:32.932Z,6.15
2023-05-10T07:45:00.967Z,5.90
2023-05-10T07:47:28.757Z,6.25
2023-05-10T07:49:56.653Z,5.93
2023-05-10T07:52:24.863Z,5.88
2023-05-10T07:54:56.113Z,6.00
2023-05-10T07:57:23.755Z,6.13
2023-05-10T07:59:51.136Z,6.40
2023-05-10T08:02:18.615Z,6.03
2023-05-10T08:04:46.735Z,5.63
2023-05-10T08:07:14.847Z,6.20
2023-05-10T08:09:42.349Z,5.50
2023-05-10T08:12:09.725Z,6.07
2023-05-10T08:14:37.712Z,6.03
2023-05-10T08:17:05.898Z,5.93
2023-05-10T08:19:33.353Z,6.28
2023-05-10T08:22:00.953Z,5.88
2023-05-10T08:24:28.378Z,5.60
2023-05-10T08:26:55.918Z,5.32
2023-05-10T08:29:23.288Z,5.38
2023-05-10T08:31:50.765Z,5.38
2023-05-10T08:34:18.346Z,5.18
2023-05-10T08:36:45.864Z,4.72
2023-05-10T08:39:26.689Z,4.60
2023-05-10T08:42:00.377Z,5.13
2023-05-10T08:44:28.065Z,4.20
2023-05-10T08:46:56.254Z,4.45
2023-05-10T08:49:24.503Z,4.65
2023-05-10T08:51:53.610Z,3.85
2023-05-10T08:54:21.420Z,3.17
2023-05-10T08:56:49.810Z,3.15
2023-05-10T08:59:17.579Z,2.83
2023-05-10T09:01:46.848Z,3.15
2023-05-10T09:04:17.536Z,2.38
2023-05-10T09:06:46.249Z,2.85
2023-05-10T09:09:16.431Z,2.95
2023-05-10T09:11:43.955Z,2.60
2023-05-10T09:14:11.808Z,2.63
2023-05-10T09:16:39.694Z,2.90
2023-05-10T09:19:08.298Z,2.72
2023-05-10T09:21:39.220Z,2.63
2023-05-10T09:24:10.352Z,2.80
2023-05-10T09:26:48.422Z,3.00
2023-05-10T09:29:17.508Z,2.90
2023-05-10T09:31:47.370Z,2.63
2023-05-10T09:34:22.190Z,2.97
2023-05-10T09:36:53.886Z,2.70
2023-05-10T09:39:21.433Z,2.70
2023-05-10T09:41:49.488Z,2.55
2023-05-10T09:44:21.835Z,2.47
2023-05-10T09:46:53.903Z,2.40
2023-05-10T09:49:22.569Z,2.35
2023-05-10T09:52:01.222Z,2.45
2023-05-10T09:54:28.593Z,2.40
2023-05-10T09:56:56.298Z,2.20
2023-05-10T09:59:23.854Z,2.70
2023-05-10T10:01:54.133Z,2.60
2023-05-10T10:04:25.335Z,2.40
2023-05-10T10:07:05.635Z,2.50
2023-05-10T10:09:33.343Z,2.22
2023-05-10T10:12:05.719Z,2.33
2023-05-10T10:14:33.363Z,2.83
2023-05-10T10:17:15.709Z,2.30
2023-05-10T10:19:56.624Z,2.40
2023-05-10T10:22:24.643Z,2.50
2023-05-10T10:24:52.779Z,2.38
2023-05-10T10:27:49.534Z,2.20
2023-05-10T10:30:29.690Z,2.40
2023-05-10T10:33:27.126Z,2.40
2023-05-10T10:35:56.361Z,2.30
2023-05-10T10:38:24.040Z,2.70
2023-05-10T10:41:03.427Z,2.53
2023-05-10T10:43:31.458Z,2.70
2023-05-10T10:46:18.999Z,2.55
2023-05-10T10:48:50.232Z,2.35
2023-05-10T10:51:17.668Z,2.65
2023-05-10T10:53:45.658Z,2.72
2023-05-10T10:56:16.161Z,2.67
2023-05-10T10:58:54.828Z,2.50
2023-05-10T11:01:22.612Z,2.40
2023-05-10T11:04:02.429Z,2.40
2023-05-10T11:06:33.656Z,2.38
2023-05-10T11:09:01.496Z,2.50
2023-05-10T11:11:29.070Z,2.47
2023-05-10T11:14:04.481Z,2.30
2023-05-10T11:16:42.178Z,2.33
2023-05-10T11:19:10.991Z,2.50
2023-05-10T11:22:04.594Z,2.50
2023-05-10T11:24:32.094Z,2.40
2023-05-10T11:26:59.669Z,2.35
2023-05-10T11:29:27.912Z,2.40
2023-05-10T11:31:58.449Z,2.63
2023-05-10T11:34:26.222Z,3.08
2023-05-10T11:36:54.937Z,2.60
2023-05-10T11:39:22.881Z,2.28
2023-05-10T11:41:51.174Z,2.47
2023-05-10T11:44:18.721Z,2.50
2023-05-10T11:46:46.240Z,2.33
2023-05-10T11:49:14.450Z,3.03
2023-05-10T11:51:43.582Z,2.67
2023-05-10T11:54:12.366Z,2.42
2023-05-10T11:56:41.021Z,2.67
2023-05-10T11:59:09.516Z,2.80
2023-05-10T12:01:37.547Z,2.75
2023-05-10T12:04:05.407Z,2.45
2023-05-10T12:06:35.028Z,2.85
2023-05-10T12:09:07.371Z,2.80
2023-05-10T12:11:38.046Z,2.88
2023-05-10T12:14:06.931Z,3.13
2023-05-10T12:16:34.487Z,3.05
2023-05-10T12:19:02.459Z,2.70
2023-05-10T12:21:31.809Z,2.60
2023-05-10T12:24:03.764Z,2.92
2023-05-10T12:26:31.575Z,2.80
2023-05-10T12:29:19.406Z,2.90
2023-05-10T12:31:57.495Z,3.03
2023-05-10T12:34:34.841Z,2.92
2023-05-10T12:37:02.788Z,2.50
2023-05-10T12:39:59.304Z,2.67
2023-05-10T12:42:26.802Z,2.80
2023-05-10T12:44:58.409Z,2.70
2023-05-10T12:47:25.999Z,2.80
2023-05-10T12:49:53.483Z,2.70
2023-05-10T12:52:23.641Z,2.65
2023-05-10T12:54:51.259Z,2.40
2023-05-10T12:57:18.752Z,2.67
2023-05-10T12:59:46.412Z,2.45
2023-05-10T13:02:14.223Z,2.70
2023-05-10T13:04:41.847Z,2.67
2023-05-10T13:07:09.529Z,2.40
2023-05-10T13:09:37.197Z,2.58
2023-05-10T13:12:04.756Z,2.78
2023-05-10T13:14:32.297Z,2.58
2023-05-10T13:16:59.812Z,2.63
2023-05-10T13:19:27.794Z,3.00
2023-05-10T13:21:55.563Z,2.58
2023-05-10T13:24:23.370Z,3.03
2023-05-10T13:26:51.139Z,2.58
2023-05-10T13:29:19.223Z,2.75
2023-05-10T13:31:47.119Z,2.55
2023-05-10T13:34:14.696Z,2.47
2023-05-10T13:36:42.319Z,2.95
2023-05-10T13:39:09.849Z,2.70
2023-05-10T13:41:38.197Z,2.53
2023-05-10T13:44:05.686Z,2.58
2023-05-10T13:46:33.361Z,2.67
2023-05-10T13:49:00.939Z,2.65
2023-05-10T13:51:32.682Z,2.80
2023-05-10T13:54:00.419Z,2.70
2023-05-10T13:56:27.991Z,2.58
2023-05-10T13:58:55.711Z,2.40
2023-05-10T14:01:23.612Z,2.65
2023-05-10T14:03:51.400Z,2.78
2023-05-10T14:06:18.969Z,2.30
2023-05-10T14:08:46.792Z,2.63
2023-05-10T14:11:14.651Z,2.75
2023-05-10T14:13:42.144Z,2.53
2023-05-10T14:16:09.795Z,2.83
2023-05-10T14:18:37.382Z,2.50
2023-05-10T14:21:05.300Z,2.63
2023-05-10T14:23:32.852Z,2.78
2023-05-10T14:26:00.430Z,2.50
2023-05-10T14:28:28.208Z,2.55
2023-05-10T14:30:56.292Z,2.40
2023-05-10T14:33:23.810Z,2.80
2023-05-10T14:35:51.421Z,2.70
2023-05-10T14:38:18.940Z,2.85
2023-05-10T14:40:46.809Z,2.55
2023-05-10T14:43:14.469Z,2.65
2023-05-10T14:45:42.486Z,2.72
2023-05-10T14:48:13.263Z,2.60
2023-05-10T14:50:40.839Z,2.70
2023-05-10T14:53:08.540Z,2.70
2023-05-10T14:55:36.276Z,2.33
2023-05-10T14:58:04.243Z,2.60
2023-05-10T15:00:32.189Z,2.75
2023-05-10T15:03:00.443Z,2.50
2023-05-10T15:05:28.833Z,2.38
2023-05-10T15:07:56.931Z,2.60
2023-05-10T15:10:24.489Z,2.75
2023-05-10T15:12:52.263Z,2.92
2023-05-10T15:15:19.810Z,3.05
2023-05-10T15:17:47.499Z,2.70
2023-05-10T15:20:15.300Z,2.80
2023-05-10T15:22:42.820Z,2.50
2023-05-10T15:25:10.946Z,2.65
2023-05-10T15:27:38.506Z,2.33
2023-05-10T15:30:06.505Z,2.70
2023-05-10T15:32:34.304Z,2.83
2023-05-10T15:35:01.799Z,2.67
2023-05-10T15:37:29.462Z,2.70
2023-05-10T15:40:04.215Z,2.70
2023-05-10T15:42:32.764Z,2.30
2023-05-10T15:45:00.623Z,2.78
2023-05-10T15:47:31.138Z,2.90
2023-05-10T15:49:59.188Z,2.55
2023-05-10T15:52:26.685Z,2.55
2023-05-10T15:54:54.265Z,2.70
2023-05-10T15:57:21.782Z,2.80
2023-05-10T15:59:49.384Z,2.70
2023-05-10T16:02:19.575Z,2.72
2023-05-10T16:04:47.581Z,2.80
2023-05-10T16:07:15.536Z,2.95
2023-05-10T16:09:43.476Z,2.50
2023-05-10T16:12:11.433Z,2.45
2023-05-10T16:14:39.262Z,2.67
2023-05-10T16:17:07.915Z,2.70
2023-05-10T16:19:35.945Z,2.75
2023-05-10T16:22:03.537Z,2.58
2023-05-10T16:24:31.221Z,2.58
2023-05-10T16:26:58.788Z,2.60
2023-05-10T16:29:27.622Z,2.70
2023-05-10T16:31:55.973Z,2.42
2023-05-10T16:34:25.432Z,2.70
2023-05-10T16:36:54.821Z,2.42
2023-05-10T16:39:22.359Z,2.65
2023-05-10T16:41:49.832Z,2.45
2023-05-10T16:44:20.164Z,2.60
2023-05-10T16:46:48.533Z,2.63
2023-05-10T16:49:16.534Z,2.58
2023-05-10T16:51:44.568Z,2.63
2023-05-10T16:54:12.715Z,2.75
2023-05-10T16:56:41.033Z,2.75
2023-05-10T16:59:09.150Z,2.92
2023-05-10T17:01:37.746Z,2.60
2023-05-10T17:04:05.778Z,2.50
2023-05-10T17:06:33.318Z,2.58
2023-05-10T17:09:01.287Z,2.90
2023-05-10T17:11:30.228Z,2.63
2023-05-10T17:13:57.816Z,2.75
2023-05-10T17:16:26.127Z,2.80
2023-05-10T17:18:54.688Z,2.80
2023-05-10T17:21:22.382Z,3.10
2023-05-10T17:23:49.822Z,3.00
2023-05-10T17:26:17.412Z,3.00
2023-05-10T17:28:44.998Z,2.90
2023-05-10T17:31:13.359Z,3.13
2023-05-10T17:33:41.412Z,3.25
2023-05-10T17:36:09.475Z,2.85
2023-05-10T17:38:37.541Z,2.97
2023-05-10T17:41:05.763Z,3.10
2023-05-10T17:43:33.455Z,3.00
2023-05-10T17:46:01.631Z,3.20
2023-05-10T17:48:29.290Z,2.78
2023-05-10T17:50:56.969Z,3.63
2023-05-10T17:53:28.887Z,2.88
2023-05-10T17:56:02.128Z,2.92
2023-05-10T17:58:31.727Z,2.70
2023-05-10T18:00:59.293Z,2.95
2023-05-10T18:03:27.489Z,2.90
2023-05-10T18:05:55.672Z,2.92
2023-05-10T18:08:26.847Z,2.60
2023-05-10T18:10:54.399Z,2.70
2023-05-10T18:13:22.366Z,3.03
2023-05-10T18:15:49.982Z,2.90
2023-05-10T18:18:19.614Z,2.90
2023-05-10T18:20:48.184Z,2.88
2023-05-10T18:23:15.974Z,3.10
2023-05-10T18:25:43.737Z,3.22
2023-05-10T18:28:11.612Z,3.33
2023-05-10T18:30:40.635Z,3.50
2023-05-10T18:33:10.339Z,3.30
2023-05-10T18:35:41.159Z,3.70
2023-05-10T18:38:09.962Z,3.85
2023-05-10T18:40:37.857Z,3.92
2023-05-10T18:43:07.498Z,3.83
2023-05-10T18:45:35.531Z,3.60
2023-05-10T18:48:03.203Z,3.63
2023-05-10T18:50:30.788Z,4.05
2023-05-10T18:52:58.306Z,4.00
2023-05-10T18:55:27.061Z,3.90
2023-05-10T18:57:57.190Z,4.35
2023-05-10T19:00:25.415Z,4.10
2023-05-10T19:02:53.795Z,4.32
2023-05-10T19:05:22.624Z,4.20
2023-05-10T19:07:50.970Z,3.63
2023-05-10T19:10:18.647Z,4.13
2023-05-10T19:12:46.270Z,4.07
2023-05-10T19:15:17.069Z,4.40
2023-05-10T19:17:46.932Z,4.80
2023-05-10T19:20:17.540Z,4.40
2023-05-10T19:23:02.006Z,4.65
2023-05-10T19:25:35.373Z,4.40
2023-05-10T19:28:02.964Z,4.15
2023-05-10T19:30:31.788Z,4.32
2023-05-10T19:32:59.248Z,4.38
2023-05-10T19:35:26.652Z,4.10
2023-05-10T19:37:54.312Z,4.38
2023-05-10T19:40:21.978Z,4.07
2023-05-10T19:42:49.396Z,4.38
2023-05-10T19:45:17.280Z,5.20
2023-05-10T19:47:45.170Z,4.60
2023-05-10T19:50:12.999Z,4.90
2023-05-10T19:52:40.590Z,4.82
2023-05-10T19:55:08.825Z,4.70
2023-05-10T19:57:36.236Z,5.28
2023-05-10T20:00:05.133Z,5.00
2023-05-10T20:02:38.644Z,5.25
2023-05-10T20:05:06.354Z,4.88
2023-05-10T20:07:33.793Z,5.15
2023-05-10T20:10:01.350Z,5.22
2023-05-10T20:12:28.758Z,5.07
2023-05-10T20:14:56.253Z,4.97
2023-05-10T20:17:23.706Z,4.95
2023-05-10T20:19:51.407Z,5.35
2023-05-10T20:22:18.836Z,5.55
2023-05-10T20:24:46.610Z,5.55
2023-05-10T20:27:14.285Z,5.05
2023-05-10T20:29:41.720Z,5.25
2023-05-10T20:32:09.101Z,5.43
2023-05-10T20:34:36.637Z,5.25
2023-05-10T20:37:03.992Z,5.78
2023-05-10T20:39:31.395Z,5.85
2023-05-10T20:42:00.304Z,5.55
2023-05-10T20:44:27.715Z,5.63
2023-05-10T20:46:55.219Z,6.38
2023-05-10T20:49:22.633Z,5.70
2023-05-10T20:51:50.109Z,6.22
2023-05-10T20:54:17.569Z,6.13
2023-05-10T20:56:44.924Z,6.00
2023-05-10T20:59:12.754Z,5.90
2023-05-10T21:01:40.274Z,6.10
2023-05-10T21:04:07.875Z,6.07
2023-05-10T21:06:35.494Z,5.95
2023-05-10T21:09:02.833Z,5.85
2023-05-10T21:11:30.413Z,6.05
2023-05-10T21:13:57.953Z,5.88
2023-05-10T21:16:25.503Z,6.25
2023-05-10T21:18:52.986Z,5.90
2023-05-10T21:21:20.583Z,5.88
2023-05-10T21:23:47.956Z,6.53
2023-05-10T21:26:15.522Z,6.10
2023-05-10T21:28:43.096Z,6.13
2023-05-10T21:31:10.678Z,5.88
2023-05-10T21:33:38.611Z,5.60
2023-05-10T21:36:06.519Z,5.97
2023-05-10T21:38:34.006Z,5.20
2023-05-10T21:41:02.411Z,6.22
2023-05-10T21:43:29.957Z,6.30
2023-05-10T21:45:57.549Z,6.40
2023-05-10T21:48:25.664Z,6.82
2023-05-10T21:50:53.048Z,7.10
2023-05-10T21:53:20.598Z,6.25
2023-05-10T21:55:48.574Z,6.80
2023-05-10T21:58:15.933Z,7.20
2023-05-10T22:00:43.422Z,6.75
2023-05-10T22:03:11.079Z,6.95
2023-05-10T22:05:39.251Z,7.30
2023-05-10T22:08:09.895Z,7.53
2023-05-10T22:10:37.435Z,6.63
2023-05-10T22:13:05.089Z,7.03
2023-05-10T22:15:36.151Z,7.15
2023-05-10T22:18:04.041Z,7.15
2023-05-10T22:20:31.656Z,7.50
2023-05-10T22:22:59.250Z,7.47
2023-05-10T22:25:26.682Z,7.45
2023-05-10T22:27:54.121Z,7.82
2023-05-10T22:30:21.720Z,7.57
2023-05-10T22:32:49.163Z,7.43
2023-05-10T22:35:16.599Z,7.30
2023-05-10T22:37:44.190Z,7.20
2023-05-10T22:40:12.233Z,6.95
2023-05-10T22:42:39.891Z,7.05
2023-05-10T22:45:07.909Z,7.30
2023-05-10T22:47:35.398Z,7.32
2023-05-10T22:50:03.924Z,6.75
2023-05-10T22:52:31.384Z,7.68
2023-05-10T22:54:58.691Z,7.72
2023-05-10T22:57:26.804Z,7.13
2023-05-10T22:59:54.320Z,7.28
2023-05-10T23:02:21.774Z,7.18
2023-05-10T23:04:49.444Z,6.95
2023-05-10T23:07:17.135Z,7.20
2023-05-10T23:09:44.718Z,6.43
2023-05-10T23:12:12.540Z,7.45
2023-05-10T23:14:40.245Z,7.25
2023-05-10T23:17:07.690Z,6.95
2023-05-10T23:19:35.115Z,6.90
2023-05-10T23:22:02.572Z,7.80
2023-05-10T23:24:30.150Z,6.70
2023-05-10T23:26:57.522Z,7.32
2023-05-10T23:29:26.545Z,7.47
2023-05-10T23:31:54.141Z,7.90
2023-05-10T23:34:21.704Z,7.95
2023-05-10T23:36:49.122Z,8.20
2023-05-10T23:39:16.673Z,8.57
2023-05-10T23:41:44.076Z,9.52
2023-05-10T23:44:11.578Z,8.32
2023-05-10T23:46:38.977Z,9.07
2023-05-10T23:49:06.408Z,9.07
2023-05-10T23:51:34.074Z,9.38
2023-05-10T23:54:02.229Z,9.57
2023-05-10T23:56:29.697Z,9.18
2023-05-10T23:58:57.607Z,9.18
